sensor_id;sensor_type;location;lat;lon;timestamp;pressure;altitude;pressure_sealevel;temperature;humidity
17764;BME280;22245;52.832;13.816;2022-07-29T00:01:53;101919.25;;;15.72;67.84
17764;BME280;22245;52.832;13.816;2022-07-29T00:05:14;101914.16;;;15.69;67.27
17764;BME280;22245;52.832;13.816;2022-07-29T00:08:37;101917.22;;;15.65;68.07
17764;BME280;22245;52.832;13.816;2022-07-29T00:12:00;101917.66;;;15.60;67.96
17764;BME280;22245;52.832;13.816;2022-07-29T00:15:23;101916.22;;;15.56;67.85
17764;BME280;22245;52.832;13.816;2022-07-29T00:18:45;101924.81;;;15.49;68.52
17764;BME280;22245;52.832;13.816;2022-07-29T00:22:07;101916.31;;;15.44;68.69
17764;BME280;22245;52.832;13.816;2022-07-29T00:25:28;101916.00;;;15.38;68.40
17764;BME280;22245;52.832;13.816;2022-07-29T00:28:53;101914.56;;;15.33;69.19
17764;BME280;22245;52.832;13.816;2022-07-29T00:32:36;101916.69;;;15.30;69.20
17764;BME280;22245;52.832;13.816;2022-07-29T00:35:57;101915.09;;;15.27;69.40
17764;BME280;22245;52.832;13.816;2022-07-29T00:39:19;101917.22;;;15.24;69.65
17764;BME280;22245;52.832;13.816;2022-07-29T00:42:42;101909.69;;;15.17;69.60
17764;BME280;22245;52.832;13.816;2022-07-29T00:46:04;101920.81;;;15.13;69.88
17764;BME280;22245;52.832;13.816;2022-07-29T00:49:28;101913.03;;;15.10;70.20
17764;BME280;22245;52.832;13.816;2022-07-29T00:52:50;101911.59;;;15.05;70.46
17764;BME280;22245;52.832;13.816;2022-07-29T00:56:13;101913.84;;;15.00;71.36
17764;BME280;22245;52.832;13.816;2022-07-29T00:59:35;101906.16;;;14.96;71.10
17764;BME280;22245;52.832;13.816;2022-07-29T01:02:56;101906.44;;;14.93;71.44
17764;BME280;22245;52.832;13.816;2022-07-29T01:06:20;101887.31;;;14.86;71.11
17764;BME280;22245;52.832;13.816;2022-07-29T01:09:41;101891.84;;;14.85;71.29
17764;BME280;22245;52.832;13.816;2022-07-29T01:13:07;101891.25;;;14.82;71.34
17764;BME280;22245;52.832;13.816;2022-07-29T01:16:31;101901.13;;;14.81;71.80
17764;BME280;22245;52.832;13.816;2022-07-29T01:19:58;101894.19;;;14.79;72.04
17764;BME280;22245;52.832;13.816;2022-07-29T01:23:39;101891.16;;;14.72;72.47
17764;BME280;22245;52.832;13.816;2022-07-29T01:27:17;101886.31;;;14.66;72.25
17764;BME280;22245;52.832;13.816;2022-07-29T01:30:51;101892.66;;;14.65;72.81
17764;BME280;22245;52.832;13.816;2022-07-29T01:34:21;101876.00;;;14.61;73.16
17764;BME280;22245;52.832;13.816;2022-07-29T01:37:47;101873.53;;;14.58;72.46
17764;BME280;22245;52.832;13.816;2022-07-29T01:41:13;101882.72;;;14.55;72.81
17764;BME280;22245;52.832;13.816;2022-07-29T01:44:41;101873.94;;;14.53;72.91
17764;BME280;22245;52.832;13.816;2022-07-29T01:48:11;101875.03;;;14.51;73.37
17764;BME280;22245;52.832;13.816;2022-07-29T01:51:41;101870.81;;;14.48;73.51
17764;BME280;22245;52.832;13.816;2022-07-29T01:55:07;101866.53;;;14.45;73.42
17764;BME280;22245;52.832;13.816;2022-07-29T01:58:31;101864.00;;;14.44;73.76
17764;BME280;22245;52.832;13.816;2022-07-29T02:01:57;101862.31;;;14.43;73.70
17764;BME280;22245;52.832;13.816;2022-07-29T02:05:21;101857.31;;;14.38;73.98
17764;BME280;22245;52.832;13.816;2022-07-29T02:08:45;101849.66;;;14.33;73.66
17764;BME280;22245;52.832;13.816;2022-07-29T02:12:09;101833.97;;;14.29;74.00
17764;BME280;22245;52.832;13.816;2022-07-29T02:15:33;101818.16;;;14.26;73.66
17764;BME280;22245;52.832;13.816;2022-07-29T02:18:55;101812.09;;;14.24;74.26
17764;BME280;22245;52.832;13.816;2022-07-29T02:22:21;101810.25;;;14.24;73.79
17764;BME280;22245;52.832;13.816;2022-07-29T02:25:44;101807.56;;;14.24;73.75
17764;BME280;22245;52.832;13.816;2022-07-29T02:29:12;101801.47;;;14.22;73.80
17764;BME280;22245;52.832;13.816;2022-07-29T02:32:36;101803.44;;;14.20;73.81
17764;BME280;22245;52.832;13.816;2022-07-29T02:36:00;101801.03;;;14.17;73.78
17764;BME280;22245;52.832;13.816;2022-07-29T02:39:25;101800.31;;;14.15;74.14
17764;BME280;22245;52.832;13.816;2022-07-29T02:42:49;101801.28;;;14.14;73.89
17764;BME280;22245;52.832;13.816;2022-07-29T02:46:15;101807.88;;;14.10;74.07
17764;BME280;22245;52.832;13.816;2022-07-29T02:49:53;101812.78;;;14.04;74.40
17764;BME280;22245;52.832;13.816;2022-07-29T02:53:18;101820.09;;;14.02;75.21
17764;BME280;22245;52.832;13.816;2022-07-29T02:56:44;101823.97;;;13.98;75.37
17764;BME280;22245;52.832;13.816;2022-07-29T03:00:08;101832.97;;;13.97;75.60
17764;BME280;22245;52.832;13.816;2022-07-29T03:03:36;101833.50;;;13.91;75.79
17764;BME280;22245;52.832;13.816;2022-07-29T03:06:59;101833.75;;;13.88;76.17
17764;BME280;22245;52.832;13.816;2022-07-29T03:10:22;101824.00;;;13.87;76.18
17764;BME280;22245;52.832;13.816;2022-07-29T03:13:46;101827.41;;;13.89;75.92
17764;BME280;22245;52.832;13.816;2022-07-29T03:17:09;101828.38;;;13.88;75.81
17764;BME280;22245;52.832;13.816;2022-07-29T03:20:31;101828.28;;;13.89;76.01
17764;BME280;22245;52.832;13.816;2022-07-29T03:23:53;101829.72;;;13.94;75.94
17764;BME280;22245;52.832;13.816;2022-07-29T03:27:14;101826.06;;;13.95;75.68
17764;BME280;22245;52.832;13.816;2022-07-29T03:30:37;101822.41;;;13.96;75.78
17764;BME280;22245;52.832;13.816;2022-07-29T03:34:03;101826.53;;;14.00;75.60
17764;BME280;22245;52.832;13.816;2022-07-29T03:37:25;101833.34;;;14.04;75.52
17764;BME280;22245;52.832;13.816;2022-07-29T03:40:49;101823.34;;;14.06;75.49
17764;BME280;22245;52.832;13.816;2022-07-29T03:44:13;101825.03;;;14.07;74.92
17764;BME280;22245;52.832;13.816;2022-07-29T03:47:42;101824.94;;;14.09;75.48
17764;BME280;22245;52.832;13.816;2022-07-29T03:51:12;101822.25;;;14.09;75.18
17764;BME280;22245;52.832;13.816;2022-07-29T03:54:34;101815.06;;;14.09;75.10
17764;BME280;22245;52.832;13.816;2022-07-29T03:57:57;101806.03;;;14.10;75.10
17764;BME280;22245;52.832;13.816;2022-07-29T04:01:19;101810.31;;;14.13;74.80
17764;BME280;22245;52.832;13.816;2022-07-29T04:04:43;101802.84;;;14.16;74.98
17764;BME280;22245;52.832;13.816;2022-07-29T04:08:05;101807.81;;;14.21;74.54
17764;BME280;22245;52.832;13.816;2022-07-29T04:11:27;101809.41;;;14.24;75.27
17764;BME280;22245;52.832;13.816;2022-07-29T04:14:49;101805.59;;;14.26;75.17
17764;BME280;22245;52.832;13.816;2022-07-29T04:18:10;101800.97;;;14.28;74.79
17764;BME280;22245;52.832;13.816;2022-07-29T04:21:38;101798.88;;;14.32;74.69
17764;BME280;22245;52.832;13.816;2022-07-29T04:24:59;101802.84;;;14.38;75.04
17764;BME280;22245;52.832;13.816;2022-07-29T04:28:24;101799.06;;;14.40;74.56
17764;BME280;22245;52.832;13.816;2022-07-29T04:31:46;101802.34;;;14.44;74.66
17764;BME280;22245;52.832;13.816;2022-07-29T04:35:08;101802.81;;;14.49;74.21
17764;BME280;22245;52.832;13.816;2022-07-29T04:38:31;101797.19;;;14.52;74.69
17764;BME280;22245;52.832;13.816;2022-07-29T04:41:53;101794.25;;;14.55;74.15
17764;BME280;22245;52.832;13.816;2022-07-29T04:45:15;101797.63;;;14.57;74.21
17764;BME280;22245;52.832;13.816;2022-07-29T04:48:41;101796.41;;;14.61;73.83
17764;BME280;22245;52.832;13.816;2022-07-29T04:52:04;101806.84;;;14.65;73.76
17764;BME280;22245;52.832;13.816;2022-07-29T04:55:27;101805.53;;;14.70;73.56
17764;BME280;22245;52.832;13.816;2022-07-29T04:58:49;101816.53;;;14.77;73.81
17764;BME280;22245;52.832;13.816;2022-07-29T05:02:11;101814.47;;;14.81;73.95
17764;BME280;22245;52.832;13.816;2022-07-29T05:05:33;101812.94;;;14.88;73.33
17764;BME280;22245;52.832;13.816;2022-07-29T05:08:55;101807.91;;;14.95;73.16
17764;BME280;22245;52.832;13.816;2022-07-29T05:12:18;101820.06;;;14.99;73.37
17764;BME280;22245;52.832;13.816;2022-07-29T05:15:40;101815.84;;;15.06;73.08
17764;BME280;22245;52.832;13.816;2022-07-29T05:19:02;101818.00;;;15.12;72.53
17764;BME280;22245;52.832;13.816;2022-07-29T05:22:24;101825.53;;;15.18;72.11
17764;BME280;22245;52.832;13.816;2022-07-29T05:25:46;101821.31;;;15.26;72.13
17764;BME280;22245;52.832;13.816;2022-07-29T05:29:09;101811.00;;;15.31;72.42
17764;BME280;22245;52.832;13.816;2022-07-29T05:32:51;101815.84;;;15.37;72.65
17764;BME280;22245;52.832;13.816;2022-07-29T05:36:13;101813.31;;;15.45;71.90
17764;BME280;22245;52.832;13.816;2022-07-29T05:39:35;101806.28;;;15.54;72.10
17764;BME280;22245;52.832;13.816;2022-07-29T05:43:10;101813.66;;;15.62;71.44
17764;BME280;22245;52.832;13.816;2022-07-29T05:46:33;101805.03;;;15.68;71.73
17764;BME280;22245;52.832;13.816;2022-07-29T05:49:55;101806.44;;;15.72;71.96
17764;BME280;22245;52.832;13.816;2022-07-29T05:53:16;101800.53;;;15.78;71.44
17764;BME280;22245;52.832;13.816;2022-07-29T05:56:39;101797.97;;;15.87;71.50
17764;BME280;22245;52.832;13.816;2022-07-29T06:00:02;101793.34;;;15.99;70.75
17764;BME280;22245;52.832;13.816;2022-07-29T06:03:33;101787.69;;;16.12;70.76
17764;BME280;22245;52.832;13.816;2022-07-29T06:06:55;101791.22;;;16.22;70.02
17764;BME280;22245;52.832;13.816;2022-07-29T06:10:16;101790.22;;;16.33;69.14
17764;BME280;22245;52.832;13.816;2022-07-29T06:13:43;101789.06;;;16.45;68.74
17764;BME280;22245;52.832;13.816;2022-07-29T06:17:05;101779.88;;;16.58;67.88
17764;BME280;22245;52.832;13.816;2022-07-29T06:20:28;101777.28;;;16.66;67.29
17764;BME280;22245;52.832;13.816;2022-07-29T06:23:52;101784.47;;;16.75;67.19
17764;BME280;22245;52.832;13.816;2022-07-29T06:27:14;101790.53;;;16.87;66.65
17764;BME280;22245;52.832;13.816;2022-07-29T06:30:36;101785.97;;;16.98;66.68
17764;BME280;22245;52.832;13.816;2022-07-29T06:33:58;101779.72;;;17.07;66.41
17764;BME280;22245;52.832;13.816;2022-07-29T06:37:21;101784.22;;;17.16;66.06
17764;BME280;22245;52.832;13.816;2022-07-29T06:40:45;101804.03;;;17.25;65.77
17764;BME280;22245;52.832;13.816;2022-07-29T06:44:22;101805.25;;;17.31;65.12
17764;BME280;22245;52.832;13.816;2022-07-29T06:47:45;101799.13;;;17.39;64.96
17764;BME280;22245;52.832;13.816;2022-07-29T06:51:06;101805.28;;;17.49;65.25
17764;BME280;22245;52.832;13.816;2022-07-29T06:54:29;101799.84;;;17.59;64.55
17764;BME280;22245;52.832;13.816;2022-07-29T06:57:51;101799.25;;;17.65;64.61
17764;BME280;22245;52.832;13.816;2022-07-29T07:01:13;101796.31;;;17.76;64.67
17764;BME280;22245;52.832;13.816;2022-07-29T07:04:35;101796.25;;;17.86;64.51
17764;BME280;22245;52.832;13.816;2022-07-29T07:07:57;101796.19;;;17.96;64.36
17764;BME280;22245;52.832;13.816;2022-07-29T07:11:21;101795.59;;;18.02;64.32
17764;BME280;22245;52.832;13.816;2022-07-29T07:14:42;101804.59;;;18.11;64.29
17764;BME280;22245;52.832;13.816;2022-07-29T07:18:05;101798.97;;;18.22;63.71
17764;BME280;22245;52.832;13.816;2022-07-29T07:21:27;101795.00;;;18.35;63.58
17764;BME280;22245;52.832;13.816;2022-07-29T07:24:50;101791.22;;;18.46;62.78
17764;BME280;22245;52.832;13.816;2022-07-29T07:28:13;101783.81;;;18.48;63.45
17764;BME280;22245;52.832;13.816;2022-07-29T07:31:36;101785.03;;;18.54;63.05
17764;BME280;22245;52.832;13.816;2022-07-29T07:34:58;101785.25;;;18.60;62.63
17764;BME280;22245;52.832;13.816;2022-07-29T07:38:20;101784.63;;;18.66;62.80
17764;BME280;22245;52.832;13.816;2022-07-29T07:41:41;101780.13;;;18.75;62.47
17764;BME280;22245;52.832;13.816;2022-07-29T07:45:06;101788.09;;;18.85;62.70
17764;BME280;22245;52.832;13.816;2022-07-29T07:48:35;101789.84;;;18.94;61.68
17764;BME280;22245;52.832;13.816;2022-07-29T07:51:57;101790.59;;;19.05;62.05
17764;BME280;22245;52.832;13.816;2022-07-29T07:55:20;101798.56;;;19.15;61.37
17764;BME280;22245;52.832;13.816;2022-07-29T07:58:42;101787.28;;;19.19;60.78
17764;BME280;22245;52.832;13.816;2022-07-29T08:02:05;101787.63;;;19.24;60.51
17764;BME280;22245;52.832;13.816;2022-07-29T08:05:27;101792.38;;;19.31;60.48
17764;BME280;22245;52.832;13.816;2022-07-29T08:08:49;101791.56;;;19.38;60.67
17764;BME280;22245;52.832;13.816;2022-07-29T08:12:11;101782.66;;;19.46;60.65
17764;BME280;22245;52.832;13.816;2022-07-29T08:15:33;101795.84;;;19.58;59.88
17764;BME280;22245;52.832;13.816;2022-07-29T08:18:56;101790.28;;;19.67;59.72
17764;BME280;22245;52.832;13.816;2022-07-29T08:22:18;101793.53;;;19.79;59.29
17764;BME280;22245;52.832;13.816;2022-07-29T08:25:41;101794.53;;;19.87;58.47
17764;BME280;22245;52.832;13.816;2022-07-29T08:29:03;101789.84;;;19.97;57.63
17764;BME280;22245;52.832;13.816;2022-07-29T08:32:24;101785.09;;;20.07;56.67
17764;BME280;22245;52.832;13.816;2022-07-29T08:36:10;101785.81;;;20.18;56.03
17764;BME280;22245;52.832;13.816;2022-07-29T08:39:33;101787.50;;;20.27;55.60
17764;BME280;22245;52.832;13.816;2022-07-29T08:42:55;101785.09;;;20.41;53.56
17764;BME280;22245;52.832;13.816;2022-07-29T08:46:17;101778.16;;;20.54;53.35
17764;BME280;22245;52.832;13.816;2022-07-29T08:49:39;101774.09;;;20.67;52.64
17764;BME280;22245;52.832;13.816;2022-07-29T08:53:02;101765.06;;;20.83;52.27
17764;BME280;22245;52.832;13.816;2022-07-29T08:56:25;101767.44;;;20.94;51.47
17764;BME280;22245;52.832;13.816;2022-07-29T08:59:50;101770.41;;;21.08;51.40
17764;BME280;22245;52.832;13.816;2022-07-29T09:03:15;101768.66;;;21.23;51.52
17764;BME280;22245;52.832;13.816;2022-07-29T09:06:43;101767.03;;;21.37;50.75
17764;BME280;22245;52.832;13.816;2022-07-29T09:10:08;101767.47;;;21.49;49.50
17764;BME280;22245;52.832;13.816;2022-07-29T09:13:30;101762.88;;;21.58;48.64
17764;BME280;22245;52.832;13.816;2022-07-29T09:16:53;101763.50;;;21.68;48.84
17764;BME280;22245;52.832;13.816;2022-07-29T09:20:17;101759.34;;;21.81;48.81
17764;BME280;22245;52.832;13.816;2022-07-29T09:23:39;101753.00;;;21.89;48.03
17764;BME280;22245;52.832;13.816;2022-07-29T09:27:08;101753.78;;;21.97;48.21
17764;BME280;22245;52.832;13.816;2022-07-29T09:30:30;101749.81;;;22.08;48.54
17764;BME280;22245;52.832;13.816;2022-07-29T09:33:52;101744.97;;;22.19;48.26
17764;BME280;22245;52.832;13.816;2022-07-29T09:37:25;101736.19;;;22.32;47.34
17764;BME280;22245;52.832;13.816;2022-07-29T09:40:56;101744.06;;;22.41;47.13
17764;BME280;22245;52.832;13.816;2022-07-29T09:44:40;101722.56;;;22.55;46.92
17764;BME280;22245;52.832;13.816;2022-07-29T09:48:14;101731.47;;;22.64;46.67
17764;BME280;22245;52.832;13.816;2022-07-29T09:51:36;101728.16;;;22.68;45.77
17764;BME280;22245;52.832;13.816;2022-07-29T09:55:05;101718.28;;;22.76;45.36
17764;BME280;22245;52.832;13.816;2022-07-29T09:58:27;101721.25;;;22.81;45.26
17764;BME280;22245;52.832;13.816;2022-07-29T10:01:50;101724.50;;;22.91;45.31
17764;BME280;22245;52.832;13.816;2022-07-29T10:05:18;101718.16;;;22.99;44.71
17764;BME280;22245;52.832;13.816;2022-07-29T10:08:41;101713.25;;;23.09;45.30
17764;BME280;22245;52.832;13.816;2022-07-29T10:12:06;101720.06;;;23.20;44.87
17764;BME280;22245;52.832;13.816;2022-07-29T10:15:29;101709.75;;;23.31;43.59
17764;BME280;22245;52.832;13.816;2022-07-29T10:18:53;101715.13;;;23.46;42.24
17764;BME280;22245;52.832;13.816;2022-07-29T10:22:15;101711.88;;;23.57;39.43
17764;BME280;22245;52.832;13.816;2022-07-29T10:25:57;101704.44;;;23.66;37.98
17764;BME280;22245;52.832;13.816;2022-07-29T10:29:19;101710.41;;;23.76;36.83
17764;BME280;22245;52.832;13.816;2022-07-29T10:32:51;101702.75;;;23.87;35.92
17764;BME280;22245;52.832;13.816;2022-07-29T10:36:26;101707.66;;;23.98;36.24
17764;BME280;22245;52.832;13.816;2022-07-29T10:40:00;101703.59;;;24.09;36.64
17764;BME280;22245;52.832;13.816;2022-07-29T10:43:46;101696.94;;;24.18;35.57
17764;BME280;22245;52.832;13.816;2022-07-29T10:47:21;101701.78;;;24.23;35.46
17764;BME280;22245;52.832;13.816;2022-07-29T10:50:53;101695.56;;;24.29;34.93
17764;BME280;22245;52.832;13.816;2022-07-29T10:54:17;101690.13;;;24.29;34.17
17764;BME280;22245;52.832;13.816;2022-07-29T10:57:39;101702.28;;;24.33;34.32
17764;BME280;22245;52.832;13.816;2022-07-29T11:01:29;101702.94;;;24.35;33.11
17764;BME280;22245;52.832;13.816;2022-07-29T11:04:59;101702.94;;;24.42;33.02
17764;BME280;22245;52.832;13.816;2022-07-29T11:08:24;101703.22;;;24.47;33.68
17764;BME280;22245;52.832;13.816;2022-07-29T11:11:48;101694.00;;;24.55;33.53
17764;BME280;22245;52.832;13.816;2022-07-29T11:15:53;101685.88;;;24.62;34.24
17764;BME280;22245;52.832;13.816;2022-07-29T11:19:24;101679.84;;;24.73;33.93
17764;BME280;22245;52.832;13.816;2022-07-29T11:23:29;101682.66;;;24.80;33.70
17764;BME280;22245;52.832;13.816;2022-07-29T11:27:11;101679.75;;;24.88;33.98
17764;BME280;22245;52.832;13.816;2022-07-29T11:30:51;101685.84;;;24.97;33.69
17764;BME280;22245;52.832;13.816;2022-07-29T11:34:21;101670.38;;;25.04;34.46
17764;BME280;22245;52.832;13.816;2022-07-29T11:38:24;101675.63;;;25.12;34.65
17764;BME280;22245;52.832;13.816;2022-07-29T11:41:47;101672.91;;;25.19;34.25
17764;BME280;22245;52.832;13.816;2022-07-29T11:45:19;101668.72;;;25.23;34.67
17764;BME280;22245;52.832;13.816;2022-07-29T11:49:02;101661.63;;;25.29;35.83
17764;BME280;22245;52.832;13.816;2022-07-29T11:52:32;101658.50;;;25.39;35.95
17764;BME280;22245;52.832;13.816;2022-07-29T11:56:09;101657.03;;;25.50;36.05
17764;BME280;22245;52.832;13.816;2022-07-29T11:59:39;101652.44;;;25.57;34.61
17764;BME280;22245;52.832;13.816;2022-07-29T12:03:05;101646.56;;;25.60;35.37
17764;BME280;22245;52.832;13.816;2022-07-29T12:06:28;101649.09;;;25.68;35.40
17764;BME280;22245;52.832;13.816;2022-07-29T12:09:50;101656.63;;;25.73;35.09
17764;BME280;22245;52.832;13.816;2022-07-29T12:13:17;101651.41;;;25.78;35.40
17764;BME280;22245;52.832;13.816;2022-07-29T12:16:41;101645.09;;;25.84;35.70
17764;BME280;22245;52.832;13.816;2022-07-29T12:20:05;101646.97;;;25.91;35.21
17764;BME280;22245;52.832;13.816;2022-07-29T12:23:27;101639.41;;;25.93;34.76
17764;BME280;22245;52.832;13.816;2022-07-29T12:26:55;101646.53;;;25.87;34.62
17764;BME280;22245;52.832;13.816;2022-07-29T12:30:18;101633.53;;;25.89;34.57
17764;BME280;22245;52.832;13.816;2022-07-29T12:33:39;101634.56;;;25.95;34.58
17764;BME280;22245;52.832;13.816;2022-07-29T12:37:03;101633.28;;;26.04;34.72
17764;BME280;22245;52.832;13.816;2022-07-29T12:40:26;101624.66;;;26.14;34.59
17764;BME280;22245;52.832;13.816;2022-07-29T12:43:52;101624.06;;;26.19;34.31
17764;BME280;22245;52.832;13.816;2022-07-29T12:47:15;101635.38;;;26.22;34.56
17764;BME280;22245;52.832;13.816;2022-07-29T12:50:53;101632.22;;;26.25;34.11
17764;BME280;22245;52.832;13.816;2022-07-29T12:54:16;101630.34;;;26.26;34.68
17764;BME280;22245;52.832;13.816;2022-07-29T12:57:45;101622.97;;;26.26;34.37
17764;BME280;22245;52.832;13.816;2022-07-29T13:01:10;101629.72;;;26.17;34.52
17764;BME280;22245;52.832;13.816;2022-07-29T13:04:37;101620.28;;;26.20;34.51
17764;BME280;22245;52.832;13.816;2022-07-29T13:08:10;101624.06;;;26.19;34.85
17764;BME280;22245;52.832;13.816;2022-07-29T13:11:45;101620.28;;;26.20;35.10
17764;BME280;22245;52.832;13.816;2022-07-29T13:15:18;101614.59;;;26.21;35.20
17764;BME280;22245;52.832;13.816;2022-07-29T13:18:40;101605.34;;;26.29;34.90
17764;BME280;22245;52.832;13.816;2022-07-29T13:22:01;101607.63;;;26.32;35.20
17764;BME280;22245;52.832;13.816;2022-07-29T13:25:25;101600.47;;;26.38;34.80
17764;BME280;22245;52.832;13.816;2022-07-29T13:28:48;101595.22;;;26.43;34.88
17764;BME280;22245;52.832;13.816;2022-07-29T13:32:10;101586.75;;;26.51;34.91
17764;BME280;22245;52.832;13.816;2022-07-29T13:35:33;101593.25;;;26.57;34.51
17764;BME280;22245;52.832;13.816;2022-07-29T13:38:59;101594.50;;;26.61;34.33
17764;BME280;22245;52.832;13.816;2022-07-29T13:42:23;101593.63;;;26.67;34.43
17764;BME280;22245;52.832;13.816;2022-07-29T13:45:46;101591.31;;;26.64;34.56
17764;BME280;22245;52.832;13.816;2022-07-29T13:49:08;101582.06;;;26.65;34.62
17764;BME280;22245;52.832;13.816;2022-07-29T13:52:31;101583.50;;;26.68;34.42
17764;BME280;22245;52.832;13.816;2022-07-29T13:55:53;101582.28;;;26.64;34.71
17764;BME280;22245;52.832;13.816;2022-07-29T13:59:15;101585.63;;;26.66;34.70
17764;BME280;22245;52.832;13.816;2022-07-29T14:02:39;101578.91;;;26.62;34.90
17764;BME280;22245;52.832;13.816;2022-07-29T14:06:00;101576.63;;;26.58;34.73
17764;BME280;22245;52.832;13.816;2022-07-29T14:09:22;101576.81;;;26.64;35.04
17764;BME280;22245;52.832;13.816;2022-07-29T14:12:44;101565.09;;;26.56;35.06
17764;BME280;22245;52.832;13.816;2022-07-29T14:16:06;101567.78;;;26.63;33.71
17764;BME280;22245;52.832;13.816;2022-07-29T14:19:29;101574.47;;;26.74;33.31
17764;BME280;22245;52.832;13.816;2022-07-29T14:22:52;101563.47;;;26.81;33.00
17764;BME280;22245;52.832;13.816;2022-07-29T14:26:14;101569.34;;;26.91;33.00
17764;BME280;22245;52.832;13.816;2022-07-29T14:29:43;101567.59;;;26.97;33.29
17764;BME280;22245;52.832;13.816;2022-07-29T14:33:05;101559.97;;;27.06;33.04
17764;BME280;22245;52.832;13.816;2022-07-29T14:36:28;101559.84;;;27.19;32.99
17764;BME280;22245;52.832;13.816;2022-07-29T14:39:50;101560.59;;;27.33;32.40
17764;BME280;22245;52.832;13.816;2022-07-29T14:43:11;101560.25;;;27.48;32.20
17764;BME280;22245;52.832;13.816;2022-07-29T14:46:33;101560.31;;;27.67;31.24
17764;BME280;22245;52.832;13.816;2022-07-29T14:49:58;101555.16;;;27.77;31.11
17764;BME280;22245;52.832;13.816;2022-07-29T14:53:21;101555.84;;;27.91;31.19
17764;BME280;22245;52.832;13.816;2022-07-29T14:56:43;101540.72;;;28.07;30.81
17764;BME280;22245;52.832;13.816;2022-07-29T15:00:07;101544.59;;;28.18;30.37
17764;BME280;22245;52.832;13.816;2022-07-29T15:03:30;101545.81;;;28.22;30.34
17764;BME280;22245;52.832;13.816;2022-07-29T15:06:53;101546.94;;;28.33;30.36
17764;BME280;22245;52.832;13.816;2022-07-29T15:10:16;101554.69;;;28.36;30.09
17764;BME280;22245;52.832;13.816;2022-07-29T15:13:40;101542.53;;;28.63;30.09
17764;BME280;22245;52.832;13.816;2022-07-29T15:17:02;101533.88;;;28.78;29.83
17764;BME280;22245;52.832;13.816;2022-07-29T15:20:24;101540.72;;;28.87;29.72
17764;BME280;22245;52.832;13.816;2022-07-29T15:23:47;101544.53;;;28.98;28.87
17764;BME280;22245;52.832;13.816;2022-07-29T15:27:11;101535.66;;;29.14;29.27
17764;BME280;22245;52.832;13.816;2022-07-29T15:30:35;101534.81;;;29.38;28.29
17764;BME280;22245;52.832;13.816;2022-07-29T15:34:00;101526.25;;;29.58;27.91
17764;BME280;22245;52.832;13.816;2022-07-29T15:37:25;101526.13;;;29.77;28.31
17764;BME280;22245;52.832;13.816;2022-07-29T15:41:08;101530.72;;;30.00;27.38
17764;BME280;22245;52.832;13.816;2022-07-29T15:44:31;101530.34;;;30.20;27.25
17764;BME280;22245;52.832;13.816;2022-07-29T15:47:53;101534.41;;;30.46;27.01
17764;BME280;22245;52.832;13.816;2022-07-29T15:51:15;101521.53;;;30.64;27.03
17764;BME280;22245;52.832;13.816;2022-07-29T15:54:38;101527.56;;;30.78;26.51
17764;BME280;22245;52.832;13.816;2022-07-29T15:58:02;101519.88;;;30.63;26.66
17764;BME280;22245;52.832;13.816;2022-07-29T16:01:25;101521.81;;;30.63;26.62
17764;BME280;22245;52.832;13.816;2022-07-29T16:04:47;101517.22;;;30.68;26.73
17764;BME280;22245;52.832;13.816;2022-07-29T16:08:09;101522.00;;;30.90;26.32
17764;BME280;22245;52.832;13.816;2022-07-29T16:11:31;101516.84;;;31.11;26.34
17764;BME280;22245;52.832;13.816;2022-07-29T16:14:52;101509.69;;;31.27;26.04
17764;BME280;22245;52.832;13.816;2022-07-29T16:18:16;101518.66;;;31.39;25.81
17764;BME280;22245;52.832;13.816;2022-07-29T16:21:37;101520.56;;;31.39;25.47
17764;BME280;22245;52.832;13.816;2022-07-29T16:24:59;101522.06;;;31.46;25.74
17764;BME280;22245;52.832;13.816;2022-07-29T16:28:21;101510.06;;;31.36;25.83
17764;BME280;22245;52.832;13.816;2022-07-29T16:31:43;101505.50;;;31.24;26.12
17764;BME280;22245;52.832;13.816;2022-07-29T16:35:07;101507.25;;;31.30;26.21
17764;BME280;22245;52.832;13.816;2022-07-29T16:38:29;101501.09;;;31.23;26.02
17764;BME280;22245;52.832;13.816;2022-07-29T16:41:51;101501.59;;;31.20;26.41
17764;BME280;22245;52.832;13.816;2022-07-29T16:45:18;101495.00;;;31.04;26.53
17764;BME280;22245;52.832;13.816;2022-07-29T16:48:41;101493.56;;;31.01;26.88
17764;BME280;22245;52.832;13.816;2022-07-29T16:52:05;101494.47;;;31.07;26.05
17764;BME280;22245;52.832;13.816;2022-07-29T16:55:27;101495.91;;;31.10;26.53
17764;BME280;22245;52.832;13.816;2022-07-29T16:58:49;101489.72;;;31.02;26.71
17764;BME280;22245;52.832;13.816;2022-07-29T17:02:12;101500.50;;;30.87;26.92
17764;BME280;22245;52.832;13.816;2022-07-29T17:05:34;101504.47;;;30.79;26.79
17764;BME280;22245;52.832;13.816;2022-07-29T17:09:15;101493.25;;;30.52;27.19
17764;BME280;22245;52.832;13.816;2022-07-29T17:12:38;101492.63;;;30.32;27.73
17764;BME280;22245;52.832;13.816;2022-07-29T17:16:00;101485.72;;;30.01;28.01
17764;BME280;22245;52.832;13.816;2022-07-29T17:19:22;101487.44;;;29.66;28.15
17764;BME280;22245;52.832;13.816;2022-07-29T17:22:44;101487.84;;;29.46;28.17
17764;BME280;22245;52.832;13.816;2022-07-29T17:26:08;101485.44;;;29.38;28.79
17764;BME280;22245;52.832;13.816;2022-07-29T17:29:30;101482.81;;;29.31;29.37
17764;BME280;22245;52.832;13.816;2022-07-29T17:32:54;101494.03;;;29.17;29.35
17764;BME280;22245;52.832;13.816;2022-07-29T17:36:16;101486.50;;;29.13;29.24
17764;BME280;22245;52.832;13.816;2022-07-29T17:39:47;101487.94;;;29.15;28.73